sensor_id;sensor_type;location;lat;lon;timestamp;pressure;altitude;pressure_sealevel;temperature;humidity
79752;BME280;69234;47.446;21.636;2024-02-15T00:00:13;101392.03;;;-1.60;96.07
79752;BME280;69234;47.446;21.636;2024-02-15T00:00:47;101390.25;;;-1.58;96.18
79752;BME280;69234;47.446;21.636;2024-02-15T00:01:19;101377.19;;;-1.64;95.74
79752;BME280;69234;47.446;21.636;2024-02-15T00:01:49;101385.84;;;-1.58;95.69
79752;BME280;69234;47.446;21.636;2024-02-15T00:02:20;101389.34;;;-1.57;95.47
79752;BME280;69234;47.446;21.636;2024-02-15T00:02:51;101389.41;;;-1.60;95.60
79752;BME280;69234;47.446;21.636;2024-02-15T00:03:22;101392.03;;;-1.60;95.66
79752;BME280;69234;47.446;21.636;2024-02-15T00:03:53;101388.59;;;-1.64;95.52
79752;BME280;69234;47.446;21.636;2024-02-15T00:04:24;101388.53;;;-1.61;95.08
79752;BME280;69234;47.446;21.636;2024-02-15T00:04:55;101394.66;;;-1.59;95.03
79752;BME280;69234;47.446;21.636;2024-02-15T00:05:27;101393.72;;;-1.56;95.56
79752;BME280;69234;47.446;21.636;2024-02-15T00:05:58;101398.22;;;-1.61;95.07
79752;BME280;69234;47.446;21.636;2024-02-15T00:06:29;101395.63;;;-1.64;94.78
79752;BME280;69234;47.446;21.636;2024-02-15T00:07:00;101397.41;;;-1.67;94.83
79752;BME280;69234;47.446;21.636;2024-02-15T00:07:32;101403.50;;;-1.63;95.45
79752;BME280;69234;47.446;21.636;2024-02-15T00:08:05;101395.69;;;-1.68;95.42
79752;BME280;69234;47.446;21.636;2024-02-15T00:08:37;101401.81;;;-1.65;95.38
79752;BME280;69234;47.446;21.636;2024-02-15T00:09:07;101401.00;;;-1.71;95.46
79752;BME280;69234;47.446;21.636;2024-02-15T00:09:38;101394.06;;;-1.73;96.14
79752;BME280;69234;47.446;21.636;2024-02-15T00:10:09;101401.84;;;-1.69;95.70
79752;BME280;69234;47.446;21.636;2024-02-15T00:10:40;101407.03;;;-1.64;96.30
79752;BME280;69234;47.446;21.636;2024-02-15T00:11:11;101390.56;;;-1.75;95.66
79752;BME280;69234;47.446;21.636;2024-02-15T00:11:44;101401.91;;;-1.72;95.84
79752;BME280;69234;47.446;21.636;2024-02-15T00:12:15;101400.94;;;-1.68;96.26
79752;BME280;69234;47.446;21.636;2024-02-15T00:12:46;101403.53;;;-1.64;96.04
79752;BME280;69234;47.446;21.636;2024-02-15T00:13:18;101399.16;;;-1.65;96.67
79752;BME280;69234;47.446;21.636;2024-02-15T00:13:49;101407.09;;;-1.67;96.41
79752;BME280;69234;47.446;21.636;2024-02-15T00:14:20;101403.53;;;-1.64;96.73
79752;BME280;69234;47.446;21.636;2024-02-15T00:14:52;101400.03;;;-1.67;96.94
79752;BME280;69234;47.446;21.636;2024-02-15T00:15:23;101393.09;;;-1.69;96.63
79752;BME280;69234;47.446;21.636;2024-02-15T00:15:53;101394.00;;;-1.72;96.25
79752;BME280;69234;47.446;21.636;2024-02-15T00:16:24;101406.22;;;-1.66;96.41
79752;BME280;69234;47.446;21.636;2024-02-15T00:16:55;101395.69;;;-1.68;96.49
79752;BME280;69234;47.446;21.636;2024-02-15T00:17:27;101393.09;;;-1.71;96.44
79752;BME280;69234;47.446;21.636;2024-02-15T00:18:00;101397.50;;;-1.71;96.48
79752;BME280;69234;47.446;21.636;2024-02-15T00:18:32;101400.09;;;-1.68;95.96
79752;BME280;69234;47.446;21.636;2024-02-15T00:19:03;101398.31;;;-1.68;95.80
79752;BME280;69234;47.446;21.636;2024-02-15T00:19:34;101397.50;;;-1.71;95.66
79752;BME280;69234;47.446;21.636;2024-02-15T00:20:05;101395.78;;;-1.72;95.73
79752;BME280;69234;47.446;21.636;2024-02-15T00:20:40;101395.72;;;-1.71;95.92
79752;BME280;69234;47.446;21.636;2024-02-15T00:21:11;101398.38;;;-1.71;95.59
79752;BME280;69234;47.446;21.636;2024-02-15T00:21:43;101401.91;;;-1.72;95.55
79752;BME280;69234;47.446;21.636;2024-02-15T00:22:14;101411.53;;;-1.69;95.52
79752;BME280;69234;47.446;21.636;2024-02-15T00:22:46;101394.91;;;-1.73;95.79
79752;BME280;69234;47.446;21.636;2024-02-15T00:23:18;101403.59;;;-1.68;95.57
79752;BME280;69234;47.446;21.636;2024-02-15T00:23:49;101396.69;;;-1.73;95.83
79752;BME280;69234;47.446;21.636;2024-02-15T00:24:20;101403.63;;;-1.71;95.88
79752;BME280;69234;47.446;21.636;2024-02-15T00:24:52;101401.91;;;-1.72;95.62
79752;BME280;69234;47.446;21.636;2024-02-15T00:25:24;101408.00;;;-1.68;95.80
79752;BME280;69234;47.446;21.636;2024-02-15T00:25:56;101396.69;;;-1.75;95.44
79752;BME280;69234;47.446;21.636;2024-02-15T00:26:27;101406.31;;;-1.72;95.61
79752;BME280;69234;47.446;21.636;2024-02-15T00:26:58;101411.53;;;-1.71;95.58
79752;BME280;69234;47.446;21.636;2024-02-15T00:27:29;101408.91;;;-1.69;95.36
79752;BME280;69234;47.446;21.636;2024-02-15T00:28:00;101414.13;;;-1.68;95.73
79752;BME280;69234;47.446;21.636;2024-02-15T00:28:31;101403.63;;;-1.69;95.72
79752;BME280;69234;47.446;21.636;2024-02-15T00:29:04;101403.63;;;-1.71;94.97
79752;BME280;69234;47.446;21.636;2024-02-15T00:29:34;101409.88;;;-1.75;95.93
79752;BME280;69234;47.446;21.636;2024-02-15T00:30:06;101403.75;;;-1.77;95.48
79752;BME280;69234;47.446;21.636;2024-02-15T00:30:38;101410.78;;;-1.76;94.88
79752;BME280;69234;47.446;21.636;2024-02-15T00:31:09;101402.81;;;-1.74;95.52
79752;BME280;69234;47.446;21.636;2024-02-15T00:31:39;101413.34;;;-1.73;95.82
79752;BME280;69234;47.446;21.636;2024-02-15T00:32:10;101415.97;;;-1.73;96.36
79752;BME280;69234;47.446;21.636;2024-02-15T00:32:41;101419.44;;;-1.71;95.83
79752;BME280;69234;47.446;21.636;2024-02-15T00:33:12;101408.09;;;-1.74;95.89
79752;BME280;69234;47.446;21.636;2024-02-15T00:33:43;101416.91;;;-1.77;96.39
79752;BME280;69234;47.446;21.636;2024-02-15T00:34:15;101410.81;;;-1.80;95.88
79752;BME280;69234;47.446;21.636;2024-02-15T00:34:47;101409.09;;;-1.80;96.29
79752;BME280;69234;47.446;21.636;2024-02-15T00:35:18;101413.41;;;-1.77;95.49
79752;BME280;69234;47.446;21.636;2024-02-15T00:35:49;101409.91;;;-1.78;95.81
79752;BME280;69234;47.446;21.636;2024-02-15T00:36:22;101412.63;;;-1.82;96.13
79752;BME280;69234;47.446;21.636;2024-02-15T00:36:53;101415.19;;;-1.78;95.65
79752;BME280;69234;47.446;21.636;2024-02-15T00:37:24;101411.69;;;-1.78;96.25
79752;BME280;69234;47.446;21.636;2024-02-15T00:37:55;101403.81;;;-1.80;96.38
79752;BME280;69234;47.446;21.636;2024-02-15T00:38:26;101404.75;;;-1.82;95.75
79752;BME280;69234;47.446;21.636;2024-02-15T00:38:57;101411.72;;;-1.80;95.58
79752;BME280;69234;47.446;21.636;2024-02-15T00:39:28;101416.09;;;-1.79;95.87
79752;BME280;69234;47.446;21.636;2024-02-15T00:39:59;101412.53;;;-1.78;95.27
79752;BME280;69234;47.446;21.636;2024-02-15T00:40:30;101403.88;;;-1.84;96.36
79752;BME280;69234;47.446;21.636;2024-02-15T00:41:01;101409.09;;;-1.80;95.64
79752;BME280;69234;47.446;21.636;2024-02-15T00:41:32;101407.31;;;-1.79;95.13
79752;BME280;69234;47.446;21.636;2024-02-15T00:42:04;101417.88;;;-1.81;96.20
79752;BME280;69234;47.446;21.636;2024-02-15T00:42:39;101410.81;;;-1.80;96.48
79752;BME280;69234;47.446;21.636;2024-02-15T00:43:10;101413.53;;;-1.83;96.52
79752;BME280;69234;47.446;21.636;2024-02-15T00:43:41;101410.09;;;-1.87;95.95
79752;BME280;69234;47.446;21.636;2024-02-15T00:44:12;101412.72;;;-1.87;96.10
79752;BME280;69234;47.446;21.636;2024-02-15T00:44:43;101409.19;;;-1.86;95.89
79752;BME280;69234;47.446;21.636;2024-02-15T00:45:14;101412.72;;;-1.87;96.71
79752;BME280;69234;47.446;21.636;2024-02-15T00:45:45;101409.19;;;-1.86;96.27
79752;BME280;69234;47.446;21.636;2024-02-15T00:46:16;101407.50;;;-1.90;96.13
79752;BME280;69234;47.446;21.636;2024-02-15T00:46:47;101408.31;;;-1.86;95.83
79752;BME280;69234;47.446;21.636;2024-02-15T00:47:18;101411.00;;;-1.89;95.90
79752;BME280;69234;47.446;21.636;2024-02-15T00:47:51;101416.28;;;-1.91;96.41
79752;BME280;69234;47.446;21.636;2024-02-15T00:48:22;101410.19;;;-1.95;96.15
79752;BME280;69234;47.446;21.636;2024-02-15T00:48:57;101409.38;;;-1.97;96.79
79752;BME280;69234;47.446;21.636;2024-02-15T00:49:28;101414.66;;;-1.98;97.15
79752;BME280;69234;47.446;21.636;2024-02-15T00:49:59;101415.50;;;-1.98;96.92
79752;BME280;69234;47.446;21.636;2024-02-15T00:50:30;101414.59;;;-1.95;97.00
79752;BME280;69234;47.446;21.636;2024-02-15T00:51:01;101408.44;;;-1.94;97.11
79752;BME280;69234;47.446;21.636;2024-02-15T00:51:35;101403.25;;;-1.97;96.70
79752;BME280;69234;47.446;21.636;2024-02-15T00:52:06;101411.97;;;-1.95;96.29
79752;BME280;69234;47.446;21.636;2024-02-15T00:52:37;101398.91;;;-2.00;96.61
79752;BME280;69234;47.446;21.636;2024-02-15T00:53:08;101405.88;;;-1.97;96.85
79752;BME280;69234;47.446;21.636;2024-02-15T00:53:40;101410.19;;;-1.95;96.42
79752;BME280;69234;47.446;21.636;2024-02-15T00:54:11;101406.72;;;-1.95;96.83
79752;BME280;69234;47.446;21.636;2024-02-15T00:54:42;101405.88;;;-1.97;96.63
79752;BME280;69234;47.446;21.636;2024-02-15T00:55:13;101404.13;;;-1.97;96.91
79752;BME280;69234;47.446;21.636;2024-02-15T00:55:44;101407.63;;;-1.98;96.64
79752;BME280;69234;47.446;21.636;2024-02-15T00:56:15;101398.91;;;-2.01;96.65
79752;BME280;69234;47.446;21.636;2024-02-15T00:56:45;101408.53;;;-1.99;97.12
79752;BME280;69234;47.446;21.636;2024-02-15T00:57:16;101404.97;;;-1.96;96.93
79752;BME280;69234;47.446;21.636;2024-02-15T00:57:48;101408.47;;;-1.96;97.20
79752;BME280;69234;47.446;21.636;2024-02-15T00:58:19;101413.75;;;-1.96;97.30
79752;BME280;69234;47.446;21.636;2024-02-15T00:58:50;101406.75;;;-1.97;97.30
79752;BME280;69234;47.446;21.636;2024-02-15T00:59:22;101408.53;;;-1.99;96.81
79752;BME280;69234;47.446;21.636;2024-02-15T00:59:53;101398.09;;;-2.03;97.15
79752;BME280;69234;47.446;21.636;2024-02-15T01:00:23;101406.75;;;-1.97;97.90
79752;BME280;69234;47.446;21.636;2024-02-15T01:00:54;101404.97;;;-1.96;97.59
79752;BME280;69234;47.446;21.636;2024-02-15T01:01:25;101400.72;;;-2.03;97.18
79752;BME280;69234;47.446;21.636;2024-02-15T01:01:57;101402.44;;;-2.01;97.55
79752;BME280;69234;47.446;21.636;2024-02-15T01:02:28;101398.91;;;-2.01;97.25
79752;BME280;69234;47.446;21.636;2024-02-15T01:02:59;101405.94;;;-2.00;97.73
79752;BME280;69234;47.446;21.636;2024-02-15T01:03:30;101404.16;;;-2.00;97.89
79752;BME280;69234;47.446;21.636;2024-02-15T01:04:02;101403.28;;;-2.00;97.91
79752;BME280;69234;47.446;21.636;2024-02-15T01:04:34;101401.53;;;-2.00;97.81
79752;BME280;69234;47.446;21.636;2024-02-15T01:05:05;101406.78;;;-2.00;97.29
79752;BME280;69234;47.446;21.636;2024-02-15T01:05:36;101395.41;;;-2.00;97.69
79752;BME280;69234;47.446;21.636;2024-02-15T01:06:07;101405.03;;;-1.99;97.52
79752;BME280;69234;47.446;21.636;2024-02-15T01:06:38;101405.88;;;-1.97;97.20
79752;BME280;69234;47.446;21.636;2024-02-15T01:07:09;101410.25;;;-1.98;97.26
79752;BME280;69234;47.446;21.636;2024-02-15T01:07:39;101404.97;;;-1.96;96.62
79752;BME280;69234;47.446;21.636;2024-02-15T01:08:10;101407.66;;;-1.99;97.16
79752;BME280;69234;47.446;21.636;2024-02-15T01:08:41;101401.53;;;-2.00;96.98
79752;BME280;69234;47.446;21.636;2024-02-15T01:09:12;101408.56;;;-2.00;96.44
79752;BME280;69234;47.446;21.636;2024-02-15T01:09:43;101413.81;;;-2.00;96.98
79752;BME280;69234;47.446;21.636;2024-02-15T01:10:16;101406.84;;;-2.03;96.96
79752;BME280;69234;47.446;21.636;2024-02-15T01:10:47;101410.31;;;-2.01;97.59
79752;BME280;69234;47.446;21.636;2024-02-15T01:11:17;101407.75;;;-2.04;97.21
79752;BME280;69234;47.446;21.636;2024-02-15T01:11:49;101409.47;;;-2.03;97.22
79752;BME280;69234;47.446;21.636;2024-02-15T01:12:20;101407.75;;;-2.05;97.45
79752;BME280;69234;47.446;21.636;2024-02-15T01:12:51;101415.59;;;-2.02;97.57
79752;BME280;69234;47.446;21.636;2024-02-15T01:13:22;101405.97;;;-2.03;97.68
79752;BME280;69234;47.446;21.636;2024-02-15T01:13:55;101409.47;;;-2.03;97.41
79752;BME280;69234;47.446;21.636;2024-02-15T01:14:26;101404.16;;;-2.01;97.82
79752;BME280;69234;47.446;21.636;2024-02-15T01:15:01;101411.19;;;-2.02;97.30
79752;BME280;69234;47.446;21.636;2024-02-15T01:15:32;101406.94;;;-2.07;97.45
79752;BME280;69234;47.446;21.636;2024-02-15T01:16:04;101406.88;;;-2.06;97.64
79752;BME280;69234;47.446;21.636;2024-02-15T01:16:36;101399.03;;;-2.09;97.35
79752;BME280;69234;47.446;21.636;2024-02-15T01:17:07;101394.69;;;-2.10;97.83
79752;BME280;69234;47.446;21.636;2024-02-15T01:17:38;101407.84;;;-2.11;97.84
79752;BME280;69234;47.446;21.636;2024-02-15T01:18:09;101403.53;;;-2.14;97.66
79752;BME280;69234;47.446;21.636;2024-02-15T01:18:40;101406.97;;;-2.12;97.82
79752;BME280;69234;47.446;21.636;2024-02-15T01:19:11;101406.06;;;-2.09;97.68
79752;BME280;69234;47.446;21.636;2024-02-15T01:19:41;101402.56;;;-2.10;97.26
79752;BME280;69234;47.446;21.636;2024-02-15T01:20:12;101397.31;;;-2.11;97.30
79752;BME280;69234;47.446;21.636;2024-02-15T01:20:43;101399.09;;;-2.10;97.97
79752;BME280;69234;47.446;21.636;2024-02-15T01:21:15;101389.41;;;-2.11;98.10
79752;BME280;69234;47.446;21.636;2024-02-15T01:21:46;101402.53;;;-2.08;97.97
79752;BME280;69234;47.446;21.636;2024-02-15T01:22:17;101394.69;;;-2.10;98.02
79752;BME280;69234;47.446;21.636;2024-02-15T01:22:48;101401.72;;;-2.10;98.14
79752;BME280;69234;47.446;21.636;2024-02-15T01:23:20;101397.31;;;-2.10;97.99
79752;BME280;69234;47.446;21.636;2024-02-15T01:23:53;101386.00;;;-2.17;97.50
79752;BME280;69234;47.446;21.636;2024-02-15T01:24:25;101398.22;;;-2.12;97.28
79752;BME280;69234;47.446;21.636;2024-02-15T01:24:56;101394.72;;;-2.13;97.45
79752;BME280;69234;47.446;21.636;2024-02-15T01:25:47;101400.84;;;-2.12;97.86
79752;BME280;69234;47.446;21.636;2024-02-15T01:26:18;101396.41;;;-2.09;97.73
79752;BME280;69234;47.446;21.636;2024-02-15T01:26:49;101390.31;;;-2.12;97.26
79752;BME280;69234;47.446;21.636;2024-02-15T01:27:20;101401.75;;;-2.15;97.77
79752;BME280;69234;47.446;21.636;2024-02-15T01:27:51;101396.50;;;-2.13;97.46
79752;BME280;69234;47.446;21.636;2024-02-15T01:28:22;101392.13;;;-2.14;97.79
79752;BME280;69234;47.446;21.636;2024-02-15T01:28:53;101397.34;;;-2.13;97.79
79752;BME280;69234;47.446;21.636;2024-02-15T01:29:24;101395.63;;;-2.16;97.76
79752;BME280;69234;47.446;21.636;2024-02-15T01:29:57;101391.31;;;-2.18;97.10
79752;BME280;69234;47.446;21.636;2024-02-15T01:30:28;101397.41;;;-2.14;97.57
79752;BME280;69234;47.446;21.636;2024-02-15T01:30:59;101395.63;;;-2.14;97.21
79752;BME280;69234;47.446;21.636;2024-02-15T01:31:30;101404.41;;;-2.15;97.82
79752;BME280;69234;47.446;21.636;2024-02-15T01:32:01;101393.00;;;-2.16;97.81
79752;BME280;69234;47.446;21.636;2024-02-15T01:32:33;101384.38;;;-2.25;97.60
79752;BME280;69234;47.446;21.636;2024-02-15T01:33:04;101387.88;;;-2.22;97.56
79752;BME280;69234;47.446;21.636;2024-02-15T01:33:35;101393.97;;;-2.20;98.31
79752;BME280;69234;47.446;21.636;2024-02-15T01:34:07;101394.00;;;-2.21;97.92
79752;BME280;69234;47.446;21.636;2024-02-15T01:34:38;101395.69;;;-2.19;97.54
79752;BME280;69234;47.446;21.636;2024-02-15T01:35:09;101399.19;;;-2.17;97.37
79752;BME280;69234;47.446;21.636;2024-02-15T01:35:40;101383.47;;;-2.23;97.92
79752;BME280;69234;47.446;21.636;2024-02-15T01:36:15;101395.75;;;-2.22;98.09
79752;BME280;69234;47.446;21.636;2024-02-15T01:36:48;101396.59;;;-2.20;97.96
79752;BME280;69234;47.446;21.636;2024-02-15T01:37:21;101395.69;;;-2.19;97.87
79752;BME280;69234;47.446;21.636;2024-02-15T01:37:52;101382.66;;;-2.26;97.38
79752;BME280;69234;47.446;21.636;2024-02-15T01:38:23;101402.81;;;-2.24;97.58
79752;BME280;69234;47.446;21.636;2024-02-15T01:38:53;101393.19;;;-2.26;98.35
79752;BME280;69234;47.446;21.636;2024-02-15T01:39:24;101400.22;;;-2.27;98.01
79752;BME280;69234;47.446;21.636;2024-02-15T01:39:55;101399.31;;;-2.24;97.70
79752;BME280;69234;47.446;21.636;2024-02-15T01:40:26;101392.31;;;-2.27;98.29
79752;BME280;69234;47.446;21.636;2024-02-15T01:40:57;101394.09;;;-2.29;98.19
79752;BME280;69234;47.446;21.636;2024-02-15T01:41:28;101402.81;;;-2.24;97.95
79752;BME280;69234;47.446;21.636;2024-02-15T01:41:59;101395.84;;;-2.28;98.22
79752;BME280;69234;47.446;21.636;2024-02-15T01:42:31;101395.81;;;-2.25;98.02
79752;BME280;69234;47.446;21.636;2024-02-15T01:43:01;101386.19;;;-2.29;97.97
79752;BME280;69234;47.446;21.636;2024-02-15T01:43:32;101387.97;;;-2.28;97.78
79752;BME280;69234;47.446;21.636;2024-02-15T01:44:04;101392.34;;;-2.28;97.36
79752;BME280;69234;47.446;21.636;2024-02-15T01:44:37;101401.94;;;-2.26;97.81
79752;BME280;69234;47.446;21.636;2024-02-15T01:45:08;101402.81;;;-2.25;97.59
79752;BME280;69234;47.446;21.636;2024-02-15T01:45:41;101402.81;;;-2.25;97.42
79752;BME280;69234;47.446;21.636;2024-02-15T01:46:12;101380.13;;;-2.31;98.01
79752;BME280;69234;47.446;21.636;2024-02-15T01:46:44;101390.63;;;-2.31;98.08
79752;BME280;69234;47.446;21.636;2024-02-15T01:47:18;101396.72;;;-2.29;98.01
79752;BME280;69234;47.446;21.636;2024-02-15T01:47:53;101384.59;;;-2.37;97.49
79752;BME280;69234;47.446;21.636;2024-02-15T01:48:24;101386.28;;;-2.32;97.66
79752;BME280;69234;47.446;21.636;2024-02-15T01:48:56;101396.72;;;-2.27;97.33
79752;BME280;69234;47.446;21.636;2024-02-15T01:49:27;101398.44;;;-2.26;97.67
79752;BME280;69234;47.446;21.636;2024-02-15T01:49:59;101397.63;;;-2.30;97.60
79752;BME280;69234;47.446;21.636;2024-02-15T01:50:31;101398.50;;;-2.29;97.53
79752;BME280;69234;47.446;21.636;2024-02-15T01:51:07;101388.94;;;-2.35;97.44
79752;BME280;69234;47.446;21.636;2024-02-15T01:51:38;101383.75;;;-2.40;97.83
79752;BME280;69234;47.446;21.636;2024-02-15T01:52:12;101401.13;;;-2.29;97.71
79752;BME280;69234;47.446;21.636;2024-02-15T01:52:45;101397.66;;;-2.33;97.91
79752;BME280;69234;47.446;21.636;2024-02-15T01:53:18;101387.19;;;-2.34;97.80
79752;BME280;69234;47.446;21.636;2024-02-15T01:53:49;101402.06;;;-2.33;97.89
79752;BME280;69234;47.446;21.636;2024-02-15T01:54:20;101378.56;;;-2.44;98.40
79752;BME280;69234;47.446;21.636;2024-02-15T01:54:52;101396.00;;;-2.37;98.09
79752;BME280;69234;47.446;21.636;2024-02-15T01:55:25;101407.31;;;-2.32;98.11
79752;BME280;69234;47.446;21.636;2024-02-15T01:55:59;101408.25;;;-2.36;97.91
79752;BME280;69234;47.446;21.636;2024-02-15T01:56:31;101405.59;;;-2.34;98.18
79752;BME280;69234;47.446;21.636;2024-02-15T01:57:04;101397.75;;;-2.39;98.63
79752;BME280;69234;47.446;21.636;2024-02-15T01:57:36;101394.31;;;-2.41;98.63
79752;BME280;69234;47.446;21.636;2024-02-15T01:58:08;101385.59;;;-2.46;98.78
79752;BME280;69234;47.446;21.636;2024-02-15T01:58:40;101396.94;;;-2.43;98.52
79752;BME280;69234;47.446;21.636;2024-02-15T01:59:16;101397.84;;;-2.42;98.77
79752;BME280;69234;47.446;21.636;2024-02-15T01:59:47;101402.19;;;-2.41;98.68
79752;BME280;69234;47.446;21.636;2024-02-15T02:00:22;101403.03;;;-2.39;99.21
79752;BME280;69234;47.446;21.636;2024-02-15T02:00:56;101403.91;;;-2.40;98.46
79752;BME280;69234;47.446;21.636;2024-02-15T02:01:30;101395.22;;;-2.44;98.90
79752;BME280;69234;47.446;21.636;2024-02-15T02:02:08;101402.19;;;-2.41;98.83
79752;BME280;69234;47.446;21.636;2024-02-15T02:02:42;101397.84;;;-2.42;98.92
79752;BME280;69234;47.446;21.636;2024-02-15T02:03:15;101395.22;;;-2.42;98.89
79752;BME280;69234;47.446;21.636;2024-02-15T02:03:46;101399.56;;;-2.41;98.61
79752;BME280;69234;47.446;21.636;2024-02-15T02:04:17;101397.75;;;-2.39;98.55
79752;BME280;69234;47.446;21.636;2024-02-15T02:04:48;101400.38;;;-2.39;98.58
79752;BME280;69234;47.446;21.636;2024-02-15T02:05:19;101394.34;;;-2.44;98.63
79752;BME280;69234;47.446;21.636;2024-02-15T02:05:50;101396.13;;;-2.45;98.98
79752;BME280;69234;47.446;21.636;2024-02-15T02:06:21;101398.75;;;-2.45;98.99
79752;BME280;69234;47.446;21.636;2024-02-15T02:06:52;101397.84;;;-2.44;99.61
79752;BME280;69234;47.446;21.636;2024-02-15T02:07:29;101390.00;;;-2.45;99.64
79752;BME280;69234;47.446;21.636;2024-02-15T02:08:00;101390.84;;;-2.46;99.38
79752;BME280;69234;47.446;21.636;2024-02-15T02:08:35;101396.91;;;-2.40;99.24
79752;BME280;69234;47.446;21.636;2024-02-15T02:09:15;101389.94;;;-2.44;99.92
79752;BME280;69234;47.446;21.636;2024-02-15T02:09:47;101383.09;;;-2.52;100.00
79752;BME280;69234;47.446;21.636;2024-02-15T02:10:18;101396.94;;;-2.43;100.00
79752;BME280;69234;47.446;21.636;2024-02-15T02:10:50;101400.47;;;-2.42;100.00
79752;BME280;69234;47.446;21.636;2024-02-15T02:11:23;101390.84;;;-2.45;100.00
79752;BME280;69234;47.446;21.636;2024-02-15T02:11:54;101392.56;;;-2.42;100.00
79752;BME280;69234;47.446;21.636;2024-02-15T02:12:26;101392.50;;;-2.39;100.00
79752;BME280;69234;47.446;21.636;2024-02-15T02:13:00;101399.47;;;-2.35;100.00
79752;BME280;69234;47.446;21.636;2024-02-15T02:13:33;101388.09;;;-2.37;100.00
79752;BME280;69234;47.446;21.636;2024-02-15T02:14:04;101389.00;;;-2.40;100.00
79752;BME280;69234;47.446;21.636;2024-02-15T02:14:35;101394.22;;;-2.35;100.00
79752;BME280;69234;47.446;21.636;2024-02-15T02:15:09;101397.72;;;-2.36;100.00
79752;BME280;69234;47.446;21.636;2024-02-15T02:15:41;101391.59;;;-2.35;100.00
79752;BME280;69234;47.446;21.636;2024-02-15T02:16:29;101387.25;;;-2.39;100.00
79752;BME280;69234;47.446;21.636;2024-02-15T02:17:14;101401.16;;;-2.32;99.86
79752;BME280;69234;47.446;21.636;2024-02-15T02:17:51;101400.28;;;-2.31;100.00
79752;BME280;69234;47.446;21.636;2024-02-15T02:18:22;101398.56;;;-2.34;100.00
79752;BME280;69234;47.446;21.636;2024-02-15T02:18:55;101389.91;;;-2.41;100.00
79752;BME280;69234;47.446;21.636;2024-02-15T02:19:29;101393.41;;;-2.40;99.99
79752;BME280;69234;47.446;21.636;2024-02-15T02:20:01;101395.13;;;-2.37;100.00
79752;BME280;69234;47.446;21.636;2024-02-15T02:20:32;101397.75;;;-2.39;100.00
79752;BME280;69234;47.446;21.636;2024-02-15T02:21:05;101393.41;;;-2.40;100.00
79752;BME280;69234;47.446;21.636;2024-02-15T02:21:36;101395.22;;;-2.42;99.91
79752;BME280;69234;47.446;21.636;2024-02-15T02:22:09;101388.19;;;-2.43;100.00
79752;BME280;69234;47.446;21.636;2024-02-15T02:22:41;101392.50;;;-2.39;100.00
79752;BME280;69234;47.446;21.636;2024-02-15T02:23:16;101395.13;;;-2.39;100.00
79752;BME280;69234;47.446;21.636;2024-02-15T02:23:53;101386.41;;;-2.41;99.87
79752;BME280;69234;47.446;21.636;2024-02-15T02:24:25;101392.50;;;-2.39;99.96
79752;BME280;69234;47.446;21.636;2024-02-15T02:25:08;101392.44;;;-2.36;99.85
79752;BME280;69234;47.446;21.636;2024-02-15T02:25:39;101394.22;;;-2.35;100.00
79752;BME280;69234;47.446;21.636;2024-02-15T02:26:12;101388.13;;;-2.40;100.00
79752;BME280;69234;47.446;21.636;2024-02-15T02:26:43;101395.09;;;-2.36;99.95
79752;BME280;69234;47.446;21.636;2024-02-15T02:27:15;101390.75;;;-2.38;99.77
79752;BME280;69234;47.446;21.636;2024-02-15T02:27:47;101390.69;;;-2.34;99.71
79752;BME280;69234;47.446;21.636;2024-02-15T02:28:19;101389.81;;;-2.34;99.71
79752;BME280;69234;47.446;21.636;2024-02-15T02:28:50;101393.31;;;-2.34;100.00
79752;BME280;69234;47.446;21.636;2024-02-15T02:29:24;101400.28;;;-2.31;100.00
79752;BME280;69234;47.446;21.636;2024-02-15T02:29:54;101387.16;;;-2.33;100.00
79752;BME280;69234;47.446;21.636;2024-02-15T02:30:26;101383.56;;;-2.29;100.00
79752;BME280;69234;47.446;21.636;2024-02-15T02:31:00;101374.91;;;-2.34;100.00
79752;BME280;69234;47.446;21.636;2024-02-15T02:31:34;101380.94;;;-2.29;100.00
79752;BME280;69234;47.446;21.636;2024-02-15T02:32:05;101381.84;;;-2.30;100.00
79752;BME280;69234;47.446;21.636;2024-02-15T02:32:38;101387.06;;;-2.27;100.00
79752;BME280;69234;47.446;21.636;2024-02-15T02:33:13;101375.84;;;-2.38;100.00
79752;BME280;69234;47.446;21.636;2024-02-15T02:33:53;101390.59;;;-2.29;99.86
79752;BME280;69234;47.446;21.636;2024-02-15T02:34:24;101394.09;;;-2.27;100.00
79752;BME280;69234;47.446;21.636;2024-02-15T02:34:56;101387.09;;;-2.28;100.00
79752;BME280;69234;47.446;21.636;2024-02-15T02:35:28;101390.59;;;-2.28;100.00
79752;BME280;69234;47.446;21.636;2024-02-15T02:36:00;101396.72;;;-2.29;100.00
79752;BME280;69234;47.446;21.636;2024-02-15T02:36:31;101395.84;;;-2.28;100.00
79752;BME280;69234;47.446;21.636;2024-02-15T02:37:02;101375.81;;;-2.35;100.00
79752;BME280;69234;47.446;21.636;2024-02-15T02:37:36;101388.81;;;-2.29;100.00
79752;BME280;69234;47.446;21.636;2024-02-15T02:38:07;101388.81;;;-2.29;100.00
79752;BME280;69234;47.446;21.636;2024-02-15T02:38:38;101389.69;;;-2.27;100.00
79752;BME280;69234;47.446;21.636;2024-02-15T02:39:09;101388.78;;;-2.26;100.00
79752;BME280;69234;47.446;21.636;2024-02-15T02:39:40;101379.16;;;-2.27;100.00
79752;BME280;69234;47.446;21.636;2024-02-15T02:40:12;101385.28;;;-2.25;100.00
79752;BME280;69234;47.446;21.636;2024-02-15T02:40:43;101382.66;;;-2.25;100.00
79752;BME280;69234;47.446;21.636;2024-02-15T02:41:14;101383.47;;;-2.21;100.00
79752;BME280;69234;47.446;21.636;2024-02-15T02:41:45;101389.59;;;-2.21;100.00
79752;BME280;69234;47.446;21.636;2024-02-15T02:42:16;101389.59;;;-2.22;100.00
79752;BME280;69234;47.446;21.636;2024-02-15T02:42:54;101386.09;;;-2.23;100.00
79752;BME280;69234;47.446;21.636;2024-02-15T02:43:30;101386.97;;;-2.21;100.00
79752;BME280;69234;47.446;21.636;2024-02-15T02:44:01;101384.34;;;-2.22;100.00
79752;BME280;69234;47.446;21.636;2024-02-15T02:44:32;101388.69;;;-2.20;100.00